sensor_id;sensor_type;location;lat;lon;timestamp;P1;durP1;ratioP1;P2;durP2;ratioP2
74553;SDS011;63114;59.956;30.214;2022-10-16T00:01:23;16.98;;;9.50;;
74553;SDS011;63114;59.956;30.214;2022-10-16T00:03:50;17.55;;;10.00;;
74553;SDS011;63114;59.956;30.214;2022-10-16T00:06:17;17.35;;;9.05;;
74553;SDS011;63114;59.956;30.214;2022-10-16T00:08:44;16.95;;;10.00;;
74553;SDS011;63114;59.956;30.214;2022-10-16T00:11:11;15.55;;;9.82;;
74553;SDS011;63114;59.956;30.214;2022-10-16T00:13:39;16.52;;;9.52;;
74553;SDS011;63114;59.956;30.214;2022-10-16T00:16:06;15.20;;;9.02;;
74553;SDS011;63114;59.956;30.214;2022-10-16T00:18:32;16.05;;;9.80;;
74553;SDS011;63114;59.956;30.214;2022-10-16T00:21:05;16.42;;;10.23;;
74553;SDS011;63114;59.956;30.214;2022-10-16T00:23:55;18.02;;;10.70;;
74553;SDS011;63114;59.956;30.214;2022-10-16T00:26:22;15.23;;;9.65;;
74553;SDS011;63114;59.956;30.214;2022-10-16T00:28:49;19.88;;;10.98;;
74553;SDS011;63114;59.956;30.214;2022-10-16T00:31:15;19.25;;;10.45;;
74553;SDS011;63114;59.956;30.214;2022-10-16T00:33:42;18.88;;;11.82;;
74553;SDS011;63114;59.956;30.214;2022-10-16T00:36:10;16.60;;;10.45;;
74553;SDS011;63114;59.956;30.214;2022-10-16T00:38:37;17.33;;;10.18;;
74553;SDS011;63114;59.956;30.214;2022-10-16T00:41:06;17.10;;;10.57;;
74553;SDS011;63114;59.956;30.214;2022-10-16T00:43:42;21.23;;;10.55;;
74553;SDS011;63114;59.956;30.214;2022-10-16T00:48:49;19.80;;;10.95;;
74553;SDS011;63114;59.956;30.214;2022-10-16T00:51:28;19.83;;;11.32;;
74553;SDS011;63114;59.956;30.214;2022-10-16T00:53:57;20.58;;;11.23;;
74553;SDS011;63114;59.956;30.214;2022-10-16T00:56:23;23.88;;;12.45;;
74553;SDS011;63114;59.956;30.214;2022-10-16T00:58:48;19.77;;;11.95;;
74553;SDS011;63114;59.956;30.214;2022-10-16T01:01:14;17.88;;;10.18;;
74553;SDS011;63114;59.956;30.214;2022-10-16T01:03:40;22.17;;;11.13;;
74553;SDS011;63114;59.956;30.214;2022-10-16T01:09:08;21.35;;;11.32;;
74553;SDS011;63114;59.956;30.214;2022-10-16T01:11:52;23.30;;;11.05;;
74553;SDS011;63114;59.956;30.214;2022-10-16T01:14:36;18.23;;;10.13;;
74553;SDS011;63114;59.956;30.214;2022-10-16T01:17:06;18.05;;;10.38;;
74553;SDS011;63114;59.956;30.214;2022-10-16T01:22:10;18.63;;;10.30;;
74553;SDS011;63114;59.956;30.214;2022-10-16T01:24:40;17.73;;;9.80;;
74553;SDS011;63114;59.956;30.214;2022-10-16T01:27:15;18.38;;;11.18;;
74553;SDS011;63114;59.956;30.214;2022-10-16T01:29:56;18.52;;;9.75;;
74553;SDS011;63114;59.956;30.214;2022-10-16T01:32:31;21.88;;;10.35;;
74553;SDS011;63114;59.956;30.214;2022-10-16T01:37:45;18.60;;;11.30;;
74553;SDS011;63114;59.956;30.214;2022-10-16T01:40:29;19.15;;;11.02;;
74553;SDS011;63114;59.956;30.214;2022-10-16T01:43:33;21.88;;;11.13;;
74553;SDS011;63114;59.956;30.214;2022-10-16T01:45:57;19.55;;;11.25;;
74553;SDS011;63114;59.956;30.214;2022-10-16T01:48:22;19.92;;;11.00;;
74553;SDS011;63114;59.956;30.214;2022-10-16T01:50:54;22.63;;;11.50;;
74553;SDS011;63114;59.956;30.214;2022-10-16T01:53:30;18.38;;;11.18;;
74553;SDS011;63114;59.956;30.214;2022-10-16T01:55:57;16.55;;;9.55;;
74553;SDS011;63114;59.956;30.214;2022-10-16T01:58:23;19.92;;;11.45;;
74553;SDS011;63114;59.956;30.214;2022-10-16T02:00:50;20.40;;;10.52;;
74553;SDS011;63114;59.956;30.214;2022-10-16T02:03:18;18.73;;;9.70;;
74553;SDS011;63114;59.956;30.214;2022-10-16T02:06:03;16.40;;;8.98;;
74553;SDS011;63114;59.956;30.214;2022-10-16T02:08:29;13.65;;;9.55;;
74553;SDS011;63114;59.956;30.214;2022-10-16T02:10:57;16.35;;;9.13;;
74553;SDS011;63114;59.956;30.214;2022-10-16T02:13:28;18.27;;;10.18;;
74553;SDS011;63114;59.956;30.214;2022-10-16T02:15:56;19.00;;;9.90;;
74553;SDS011;63114;59.956;30.214;2022-10-16T02:18:22;16.95;;;10.15;;
74553;SDS011;63114;59.956;30.214;2022-10-16T02:20:55;16.83;;;11.02;;
74553;SDS011;63114;59.956;30.214;2022-10-16T02:23:27;19.58;;;10.70;;
74553;SDS011;63114;59.956;30.214;2022-10-16T02:25:59;16.67;;;10.65;;
74553;SDS011;63114;59.956;30.214;2022-10-16T02:28:31;21.52;;;11.65;;
74553;SDS011;63114;59.956;30.214;2022-10-16T02:31:04;19.10;;;10.73;;
74553;SDS011;63114;59.956;30.214;2022-10-16T02:33:31;17.63;;;10.63;;
74553;SDS011;63114;59.956;30.214;2022-10-16T02:35:57;21.13;;;10.75;;
74553;SDS011;63114;59.956;30.214;2022-10-16T02:38:23;17.13;;;10.13;;
74553;SDS011;63114;59.956;30.214;2022-10-16T02:40:50;15.93;;;10.13;;
74553;SDS011;63114;59.956;30.214;2022-10-16T02:43:16;17.25;;;9.75;;
74553;SDS011;63114;59.956;30.214;2022-10-16T02:45:42;15.32;;;10.00;;
74553;SDS011;63114;59.956;30.214;2022-10-16T02:48:08;17.10;;;10.15;;
74553;SDS011;63114;59.956;30.214;2022-10-16T02:50:34;17.38;;;9.30;;
74553;SDS011;63114;59.956;30.214;2022-10-16T02:52:59;18.80;;;9.77;;
74553;SDS011;63114;59.956;30.214;2022-10-16T02:55:25;14.80;;;9.73;;
74553;SDS011;63114;59.956;30.214;2022-10-16T02:57:53;15.63;;;9.60;;
74553;SDS011;63114;59.956;30.214;2022-10-16T03:00:19;14.30;;;8.43;;
74553;SDS011;63114;59.956;30.214;2022-10-16T03:02:45;16.05;;;8.75;;
74553;SDS011;63114;59.956;30.214;2022-10-16T03:05:12;15.07;;;9.00;;
74553;SDS011;63114;59.956;30.214;2022-10-16T03:07:39;15.63;;;9.05;;
74553;SDS011;63114;59.956;30.214;2022-10-16T03:10:04;13.90;;;9.23;;
74553;SDS011;63114;59.956;30.214;2022-10-16T03:12:30;18.67;;;9.10;;
74553;SDS011;63114;59.956;30.214;2022-10-16T03:14:56;13.98;;;9.10;;
74553;SDS011;63114;59.956;30.214;2022-10-16T03:17:22;12.48;;;8.88;;
74553;SDS011;63114;59.956;30.214;2022-10-16T03:19:49;14.63;;;8.70;;
74553;SDS011;63114;59.956;30.214;2022-10-16T03:22:14;16.88;;;8.82;;
74553;SDS011;63114;59.956;30.214;2022-10-16T03:24:40;15.15;;;8.98;;
74553;SDS011;63114;59.956;30.214;2022-10-16T03:27:06;16.17;;;8.90;;
74553;SDS011;63114;59.956;30.214;2022-10-16T03:29:32;16.35;;;9.50;;
74553;SDS011;63114;59.956;30.214;2022-10-16T03:31:58;15.63;;;9.18;;
74553;SDS011;63114;59.956;30.214;2022-10-16T03:34:24;16.33;;;9.40;;
74553;SDS011;63114;59.956;30.214;2022-10-16T03:36:50;15.60;;;9.07;;
74553;SDS011;63114;59.956;30.214;2022-10-16T03:39:16;15.75;;;9.85;;
74553;SDS011;63114;59.956;30.214;2022-10-16T03:41:42;13.20;;;8.85;;
74553;SDS011;63114;59.956;30.214;2022-10-16T03:44:08;13.52;;;8.82;;
74553;SDS011;63114;59.956;30.214;2022-10-16T03:46:33;16.25;;;9.35;;
74553;SDS011;63114;59.956;30.214;2022-10-16T03:48:59;16.95;;;8.65;;
74553;SDS011;63114;59.956;30.214;2022-10-16T03:51:25;14.45;;;9.52;;
74553;SDS011;63114;59.956;30.214;2022-10-16T03:53:50;14.75;;;9.07;;
74553;SDS011;63114;59.956;30.214;2022-10-16T03:56:16;15.48;;;10.02;;
74553;SDS011;63114;59.956;30.214;2022-10-16T03:58:42;17.17;;;9.25;;
74553;SDS011;63114;59.956;30.214;2022-10-16T04:01:07;13.35;;;8.63;;
74553;SDS011;63114;59.956;30.214;2022-10-16T04:03:33;14.70;;;9.23;;
74553;SDS011;63114;59.956;30.214;2022-10-16T04:05:59;15.40;;;9.15;;
74553;SDS011;63114;59.956;30.214;2022-10-16T04:08:24;14.88;;;9.23;;
74553;SDS011;63114;59.956;30.214;2022-10-16T04:10:50;18.30;;;9.55;;
74553;SDS011;63114;59.956;30.214;2022-10-16T04:13:16;13.18;;;8.80;;
74553;SDS011;63114;59.956;30.214;2022-10-16T04:15:42;18.35;;;9.77;;
74553;SDS011;63114;59.956;30.214;2022-10-16T04:18:08;16.13;;;9.02;;
74553;SDS011;63114;59.956;30.214;2022-10-16T04:20:33;15.25;;;9.55;;
74553;SDS011;63114;59.956;30.214;2022-10-16T04:22:59;14.38;;;10.15;;
74553;SDS011;63114;59.956;30.214;2022-10-16T04:25:25;15.63;;;9.20;;
74553;SDS011;63114;59.956;30.214;2022-10-16T04:27:52;16.83;;;8.88;;
74553;SDS011;63114;59.956;30.214;2022-10-16T04:30:19;13.50;;;9.00;;
74553;SDS011;63114;59.956;30.214;2022-10-16T04:32:47;16.35;;;9.02;;
74553;SDS011;63114;59.956;30.214;2022-10-16T04:35:17;13.25;;;9.15;;
74553;SDS011;63114;59.956;30.214;2022-10-16T04:37:43;16.58;;;8.63;;
74553;SDS011;63114;59.956;30.214;2022-10-16T04:40:09;14.10;;;9.30;;
74553;SDS011;63114;59.956;30.214;2022-10-16T04:42:35;20.23;;;9.82;;
74553;SDS011;63114;59.956;30.214;2022-10-16T04:45:01;17.85;;;9.63;;
74553;SDS011;63114;59.956;30.214;2022-10-16T04:47:26;13.25;;;8.60;;
74553;SDS011;63114;59.956;30.214;2022-10-16T04:49:52;17.98;;;9.93;;
74553;SDS011;63114;59.956;30.214;2022-10-16T04:52:18;16.27;;;9.57;;
74553;SDS011;63114;59.956;30.214;2022-10-16T04:54:44;13.90;;;9.30;;
74553;SDS011;63114;59.956;30.214;2022-10-16T04:57:10;15.60;;;9.20;;
74553;SDS011;63114;59.956;30.214;2022-10-16T04:59:36;17.35;;;9.73;;
74553;SDS011;63114;59.956;30.214;2022-10-16T05:02:02;17.98;;;10.32;;
74553;SDS011;63114;59.956;30.214;2022-10-16T05:04:28;16.90;;;9.60;;
74553;SDS011;63114;59.956;30.214;2022-10-16T05:06:53;17.38;;;9.15;;
74553;SDS011;63114;59.956;30.214;2022-10-16T05:09:19;18.55;;;10.30;;
74553;SDS011;63114;59.956;30.214;2022-10-16T05:11:45;16.02;;;8.68;;
74553;SDS011;63114;59.956;30.214;2022-10-16T05:14:11;14.50;;;9.35;;
74553;SDS011;63114;59.956;30.214;2022-10-16T05:16:37;14.60;;;9.18;;
74553;SDS011;63114;59.956;30.214;2022-10-16T05:19:03;18.13;;;9.90;;
74553;SDS011;63114;59.956;30.214;2022-10-16T05:21:28;20.88;;;9.75;;
74553;SDS011;63114;59.956;30.214;2022-10-16T05:23:54;15.90;;;9.10;;
74553;SDS011;63114;59.956;30.214;2022-10-16T05:26:20;18.05;;;10.10;;
74553;SDS011;63114;59.956;30.214;2022-10-16T05:28:46;15.32;;;9.43;;
74553;SDS011;63114;59.956;30.214;2022-10-16T05:31:12;16.05;;;9.23;;
74553;SDS011;63114;59.956;30.214;2022-10-16T05:33:37;16.27;;;9.57;;
74553;SDS011;63114;59.956;30.214;2022-10-16T05:36:04;16.05;;;8.90;;
74553;SDS011;63114;59.956;30.214;2022-10-16T05:38:32;14.45;;;8.98;;
74553;SDS011;63114;59.956;30.214;2022-10-16T05:40:57;15.98;;;8.77;;
74553;SDS011;63114;59.956;30.214;2022-10-16T05:43:23;16.63;;;8.93;;
74553;SDS011;63114;59.956;30.214;2022-10-16T05:45:55;18.83;;;9.50;;
74553;SDS011;63114;59.956;30.214;2022-10-16T05:48:22;16.20;;;8.38;;
74553;SDS011;63114;59.956;30.214;2022-10-16T05:50:48;14.63;;;7.82;;
74553;SDS011;63114;59.956;30.214;2022-10-16T05:53:21;16.65;;;9.60;;
74553;SDS011;63114;59.956;30.214;2022-10-16T05:55:54;13.75;;;8.98;;
74553;SDS011;63114;59.956;30.214;2022-10-16T05:58:20;15.82;;;8.80;;
74553;SDS011;63114;59.956;30.214;2022-10-16T06:00:57;14.90;;;8.38;;
74553;SDS011;63114;59.956;30.214;2022-10-16T06:03:24;13.60;;;7.60;;
74553;SDS011;63114;59.956;30.214;2022-10-16T06:05:50;12.82;;;8.35;;
74553;SDS011;63114;59.956;30.214;2022-10-16T06:08:16;12.63;;;7.53;;
74553;SDS011;63114;59.956;30.214;2022-10-16T06:10:46;16.10;;;9.02;;
74553;SDS011;63114;59.956;30.214;2022-10-16T06:13:12;14.77;;;8.32;;
74553;SDS011;63114;59.956;30.214;2022-10-16T06:15:39;14.85;;;8.55;;
74553;SDS011;63114;59.956;30.214;2022-10-16T06:18:07;17.30;;;9.07;;
74553;SDS011;63114;59.956;30.214;2022-10-16T06:20:36;15.57;;;8.93;;
74553;SDS011;63114;59.956;30.214;2022-10-16T06:23:02;14.75;;;8.70;;
74553;SDS011;63114;59.956;30.214;2022-10-16T06:25:32;13.23;;;8.05;;
74553;SDS011;63114;59.956;30.214;2022-10-16T06:27:58;15.55;;;8.95;;
74553;SDS011;63114;59.956;30.214;2022-10-16T06:30:24;17.42;;;8.77;;
74553;SDS011;63114;59.956;30.214;2022-10-16T06:32:50;13.50;;;8.13;;
74553;SDS011;63114;59.956;30.214;2022-10-16T06:35:16;13.73;;;8.52;;
74553;SDS011;63114;59.956;30.214;2022-10-16T06:37:42;14.15;;;8.02;;
74553;SDS011;63114;59.956;30.214;2022-10-16T06:40:07;13.77;;;8.50;;
74553;SDS011;63114;59.956;30.214;2022-10-16T06:42:33;13.45;;;8.23;;
74553;SDS011;63114;59.956;30.214;2022-10-16T06:44:59;14.02;;;7.50;;
74553;SDS011;63114;59.956;30.214;2022-10-16T06:47:25;19.77;;;9.10;;
74553;SDS011;63114;59.956;30.214;2022-10-16T06:49:50;14.55;;;8.50;;
74553;SDS011;63114;59.956;30.214;2022-10-16T06:52:16;15.68;;;8.05;;
74553;SDS011;63114;59.956;30.214;2022-10-16T06:54:42;14.43;;;8.38;;
74553;SDS011;63114;59.956;30.214;2022-10-16T06:57:07;17.23;;;8.15;;
74553;SDS011;63114;59.956;30.214;2022-10-16T06:59:33;12.77;;;8.13;;
74553;SDS011;63114;59.956;30.214;2022-10-16T07:01:59;18.15;;;9.15;;
74553;SDS011;63114;59.956;30.214;2022-10-16T07:04:25;13.35;;;8.35;;
74553;SDS011;63114;59.956;30.214;2022-10-16T07:06:51;20.02;;;9.10;;
74553;SDS011;63114;59.956;30.214;2022-10-16T07:09:16;17.65;;;9.00;;
74553;SDS011;63114;59.956;30.214;2022-10-16T07:11:42;14.68;;;8.50;;
74553;SDS011;63114;59.956;30.214;2022-10-16T07:14:18;14.80;;;8.27;;
74553;SDS011;63114;59.956;30.214;2022-10-16T07:16:45;16.67;;;8.43;;
74553;SDS011;63114;59.956;30.214;2022-10-16T07:19:11;17.80;;;9.60;;
74553;SDS011;63114;59.956;30.214;2022-10-16T07:21:39;16.05;;;9.00;;
74553;SDS011;63114;59.956;30.214;2022-10-16T07:24:07;13.10;;;8.25;;
74553;SDS011;63114;59.956;30.214;2022-10-16T07:26:36;16.73;;;10.10;;
74553;SDS011;63114;59.956;30.214;2022-10-16T07:29:05;16.33;;;9.10;;
74553;SDS011;63114;59.956;30.214;2022-10-16T07:31:32;17.90;;;10.02;;
74553;SDS011;63114;59.956;30.214;2022-10-16T07:33:59;17.02;;;9.30;;
74553;SDS011;63114;59.956;30.214;2022-10-16T07:36:25;19.65;;;9.85;;
74553;SDS011;63114;59.956;30.214;2022-10-16T07:38:51;15.60;;;9.48;;
74553;SDS011;63114;59.956;30.214;2022-10-16T07:41:18;13.57;;;8.43;;
74553;SDS011;63114;59.956;30.214;2022-10-16T07:43:45;13.95;;;8.50;;
74553;SDS011;63114;59.956;30.214;2022-10-16T07:46:12;19.02;;;8.88;;
74553;SDS011;63114;59.956;30.214;2022-10-16T07:48:39;17.60;;;9.98;;
74553;SDS011;63114;59.956;30.214;2022-10-16T07:51:05;16.95;;;10.18;;
74553;SDS011;63114;59.956;30.214;2022-10-16T07:53:32;18.27;;;8.90;;
74553;SDS011;63114;59.956;30.214;2022-10-16T07:55:59;16.40;;;8.60;;
74553;SDS011;63114;59.956;30.214;2022-10-16T07:58:26;18.50;;;9.30;;
74553;SDS011;63114;59.956;30.214;2022-10-16T08:00:53;12.80;;;7.88;;
74553;SDS011;63114;59.956;30.214;2022-10-16T08:03:18;15.63;;;8.50;;
74553;SDS011;63114;59.956;30.214;2022-10-16T08:05:44;14.98;;;8.50;;
74553;SDS011;63114;59.956;30.214;2022-10-16T08:08:13;12.70;;;8.38;;
74553;SDS011;63114;59.956;30.214;2022-10-16T08:10:42;14.57;;;8.13;;
74553;SDS011;63114;59.956;30.214;2022-10-16T08:13:08;16.92;;;9.80;;
74553;SDS011;63114;59.956;30.214;2022-10-16T08:15:37;15.85;;;8.73;;
74553;SDS011;63114;59.956;30.214;2022-10-16T08:18:04;13.77;;;8.13;;
74553;SDS011;63114;59.956;30.214;2022-10-16T08:20:30;13.40;;;8.13;;
74553;SDS011;63114;59.956;30.214;2022-10-16T08:22:57;18.60;;;8.60;;
74553;SDS011;63114;59.956;30.214;2022-10-16T08:25:23;16.75;;;8.35;;
74553;SDS011;63114;59.956;30.214;2022-10-16T08:27:49;14.45;;;8.52;;
74553;SDS011;63114;59.956;30.214;2022-10-16T08:30:16;14.07;;;7.78;;
74553;SDS011;63114;59.956;30.214;2022-10-16T08:32:43;15.88;;;8.40;;
74553;SDS011;63114;59.956;30.214;2022-10-16T08:35:11;12.23;;;7.95;;
74553;SDS011;63114;59.956;30.214;2022-10-16T08:37:37;13.13;;;8.05;;
74553;SDS011;63114;59.956;30.214;2022-10-16T08:40:04;14.10;;;8.07;;
74553;SDS011;63114;59.956;30.214;2022-10-16T08:50:37;15.70;;;7.97;;
74553;SDS011;63114;59.956;30.214;2022-10-16T08:53:05;13.75;;;8.25;;
74553;SDS011;63114;59.956;30.214;2022-10-16T08:55:38;15.52;;;8.40;;
74553;SDS011;63114;59.956;30.214;2022-10-16T08:58:14;18.85;;;7.97;;
74553;SDS011;63114;59.956;30.214;2022-10-16T09:00:49;11.55;;;7.65;;
74553;SDS011;63114;59.956;30.214;2022-10-16T09:03:22;15.52;;;8.05;;
74553;SDS011;63114;59.956;30.214;2022-10-16T09:06:07;15.38;;;8.55;;
74553;SDS011;63114;59.956;30.214;2022-10-16T09:25:31;16.17;;;9.03;;
74553;SDS011;63114;59.956;30.214;2022-10-16T09:27:58;12.68;;;7.80;;
74553;SDS011;63114;59.956;30.214;2022-10-16T09:30:26;12.68;;;7.68;;
74553;SDS011;63114;59.956;30.214;2022-10-16T09:32:53;13.27;;;7.40;;
74553;SDS011;63114;59.956;30.214;2022-10-16T09:35:20;18.30;;;7.63;;
74553;SDS011;63114;59.956;30.214;2022-10-16T09:37:49;20.63;;;8.15;;
74553;SDS011;63114;59.956;30.214;2022-10-16T09:40:30;11.82;;;7.32;;
74553;SDS011;63114;59.956;30.214;2022-10-16T09:43:06;13.25;;;7.75;;
74553;SDS011;63114;59.956;30.214;2022-10-16T09:45:54;12.90;;;7.78;;
74553;SDS011;63114;59.956;30.214;2022-10-16T09:48:25;13.82;;;7.32;;
74553;SDS011;63114;59.956;30.214;2022-10-16T09:51:01;11.10;;;6.85;;
74553;SDS011;63114;59.956;30.214;2022-10-16T09:53:43;11.70;;;7.07;;
74553;SDS011;63114;59.956;30.214;2022-10-16T09:56:12;18.98;;;8.25;;
74553;SDS011;63114;59.956;30.214;2022-10-16T09:58:54;13.32;;;7.20;;
74553;SDS011;63114;59.956;30.214;2022-10-16T10:01:22;14.45;;;8.10;;
74553;SDS011;63114;59.956;30.214;2022-10-16T10:03:55;14.55;;;7.55;;
74553;SDS011;63114;59.956;30.214;2022-10-16T10:06:27;13.07;;;7.72;;
74553;SDS011;63114;59.956;30.214;2022-10-16T10:11:53;14.90;;;8.43;;
74553;SDS011;63114;59.956;30.214;2022-10-16T10:14:34;15.15;;;7.50;;
74553;SDS011;63114;59.956;30.214;2022-10-16T10:19:40;16.58;;;8.65;;
74553;SDS011;63114;59.956;30.214;2022-10-16T10:22:23;13.25;;;7.30;;
74553;SDS011;63114;59.956;30.214;2022-10-16T10:41:14;13.15;;;7.47;;
74553;SDS011;63114;59.956;30.214;2022-10-16T10:43:48;12.75;;;7.78;;
74553;SDS011;63114;59.956;30.214;2022-10-16T10:46:22;15.38;;;8.38;;
74553;SDS011;63114;59.956;30.214;2022-10-16T10:51:54;11.38;;;7.95;;
74553;SDS011;63114;59.956;30.214;2022-10-16T10:57:33;12.63;;;6.90;;
74553;SDS011;63114;59.956;30.214;2022-10-16T11:11:57;14.27;;;6.88;;
74553;SDS011;63114;59.956;30.214;2022-10-16T11:14:36;14.02;;;6.85;;
74553;SDS011;63114;59.956;30.214;2022-10-16T11:17:08;13.90;;;7.32;;
74553;SDS011;63114;59.956;30.214;2022-10-16T11:19:49;12.75;;;7.85;;
74553;SDS011;63114;59.956;30.214;2022-10-16T11:28:01;12.30;;;6.95;;
74553;SDS011;63114;59.956;30.214;2022-10-16T11:30:43;14.35;;;7.40;;
74553;SDS011;63114;59.956;30.214;2022-10-16T11:49:42;13.88;;;7.82;;
74553;SDS011;63114;59.956;30.214;2022-10-16T11:54:54;12.93;;;7.63;;
74553;SDS011;63114;59.956;30.214;2022-10-16T11:57:23;12.43;;;8.02;;
74553;SDS011;63114;59.956;30.214;2022-10-16T11:59:59;13.02;;;7.68;;
74553;SDS011;63114;59.956;30.214;2022-10-16T12:02:44;12.18;;;7.57;;
74553;SDS011;63114;59.956;30.214;2022-10-16T12:05:23;13.38;;;7.65;;
74553;SDS011;63114;59.956;30.214;2022-10-16T12:08:03;13.30;;;7.35;;
74553;SDS011;63114;59.956;30.214;2022-10-16T12:10:35;15.73;;;7.32;;
74553;SDS011;63114;59.956;30.214;2022-10-16T12:13:04;12.82;;;7.25;;
74553;SDS011;63114;59.956;30.214;2022-10-16T12:15:50;15.25;;;7.88;;
74553;SDS011;63114;59.956;30.214;2022-10-16T12:18:24;14.07;;;8.23;;
74553;SDS011;63114;59.956;30.214;2022-10-16T12:20:56;11.55;;;7.25;;
74553;SDS011;63114;59.956;30.214;2022-10-16T12:23:31;13.02;;;8.20;;
74553;SDS011;63114;59.956;30.214;2022-10-16T12:25:58;12.30;;;7.80;;
74553;SDS011;63114;59.956;30.214;2022-10-16T12:28:31;11.88;;;7.38;;
74553;SDS011;63114;59.956;30.214;2022-10-16T12:31:02;12.32;;;7.78;;
74553;SDS011;63114;59.956;30.214;2022-10-16T12:33:37;12.73;;;7.60;;
74553;SDS011;63114;59.956;30.214;2022-10-16T12:36:15;14.32;;;7.60;;
74553;SDS011;63114;59.956;30.214;2022-10-16T12:38:57;12.07;;;7.47;;
74553;SDS011;63114;59.956;30.214;2022-10-16T12:41:24;13.40;;;8.00;;
74553;SDS011;63114;59.956;30.214;2022-10-16T12:43:54;13.43;;;8.13;;
74553;SDS011;63114;59.956;30.214;2022-10-16T12:46:22;14.50;;;8.90;;
74553;SDS011;63114;59.956;30.214;2022-10-16T12:48:52;13.55;;;8.02;;
74553;SDS011;63114;59.956;30.214;2022-10-16T12:54:02;14.57;;;7.72;;
74553;SDS011;63114;59.956;30.214;2022-10-16T12:59:05;14.35;;;8.25;;
74553;SDS011;63114;59.956;30.214;2022-10-16T13:07:03;13.00;;;7.72;;
74553;SDS011;63114;59.956;30.214;2022-10-16T13:14:50;13.45;;;7.72;;
74553;SDS011;63114;59.956;30.214;2022-10-16T13:28:08;17.42;;;8.13;;
74553;SDS011;63114;59.956;30.214;2022-10-16T13:33:16;15.77;;;8.30;;
74553;SDS011;63114;59.956;30.214;2022-10-16T13:35:53;14.70;;;8.48;;
74553;SDS011;63114;59.956;30.214;2022-10-16T13:38:21;15.32;;;9.23;;
74553;SDS011;63114;59.956;30.214;2022-10-16T13:40:49;12.52;;;8.27;;
74553;SDS011;63114;59.956;30.214;2022-10-16T13:43:42;16.25;;;8.32;;
74553;SDS011;63114;59.956;30.214;2022-10-16T13:48:43;13.23;;;8.70;;
74553;SDS011;63114;59.956;30.214;2022-10-16T13:53:40;19.85;;;9.13;;
74553;SDS011;63114;59.956;30.214;2022-10-16T13:56:09;13.55;;;8.70;;
74553;SDS011;63114;59.956;30.214;2022-10-16T13:58:37;18.55;;;10.10;;
74553;SDS011;63114;59.956;30.214;2022-10-16T14:01:06;17.40;;;9.63;;
74553;SDS011;63114;59.956;30.214;2022-10-16T14:03:42;13.57;;;8.82;;
74553;SDS011;63114;59.956;30.214;2022-10-16T14:06:14;15.35;;;9.05;;
74553;SDS011;63114;59.956;30.214;2022-10-16T14:08:43;14.68;;;9.45;;
74553;SDS011;63114;59.956;30.214;2022-10-16T14:11:11;14.68;;;9.45;;
74553;SDS011;63114;59.956;30.214;2022-10-16T14:13:38;17.35;;;9.60;;
74553;SDS011;63114;59.956;30.214;2022-10-16T14:16:06;16.48;;;10.63;;
74553;SDS011;63114;59.956;30.214;2022-10-16T14:18:33;16.90;;;9.82;;
74553;SDS011;63114;59.956;30.214;2022-10-16T14:21:03;15.80;;;9.65;;
74553;SDS011;63114;59.956;30.214;2022-10-16T14:28:39;21.13;;;10.90;;
74553;SDS011;63114;59.956;30.214;2022-10-16T14:33:54;15.63;;;9.98;;
74553;SDS011;63114;59.956;30.214;2022-10-16T14:36:20;16.23;;;10.63;;
74553;SDS011;63114;59.956;30.214;2022-10-16T14:41:51;19.35;;;10.57;;
74553;SDS011;63114;59.956;30.214;2022-10-16T14:44:18;17.55;;;10.70;;
74553;SDS011;63114;59.956;30.214;2022-10-16T14:46:44;18.70;;;10.80;;
74553;SDS011;63114;59.956;30.214;2022-10-16T14:51:40;20.25;;;11.48;;
74553;SDS011;63114;59.956;30.214;2022-10-16T14:54:11;19.88;;;11.38;;
74553;SDS011;63114;59.956;30.214;2022-10-16T14:59:13;21.25;;;11.32;;
74553;SDS011;63114;59.956;30.214;2022-10-16T15:01:42;21.13;;;11.15;;
74553;SDS011;63114;59.956;30.214;2022-10-16T15:04:10;19.77;;;10.95;;
74553;SDS011;63114;59.956;30.214;2022-10-16T15:06:37;23.80;;;11.82;;
74553;SDS011;63114;59.956;30.214;2022-10-16T15:09:03;20.30;;;11.48;;
74553;SDS011;63114;59.956;30.214;2022-10-16T15:11:29;21.50;;;10.95;;
74553;SDS011;63114;59.956;30.214;2022-10-16T15:13:57;22.55;;;11.90;;
74553;SDS011;63114;59.956;30.214;2022-10-16T15:16:23;18.92;;;10.77;;
74553;SDS011;63114;59.956;30.214;2022-10-16T15:18:50;18.65;;;12.07;;
74553;SDS011;63114;59.956;30.214;2022-10-16T15:21:24;18.25;;;10.80;;
74553;SDS011;63114;59.956;30.214;2022-10-16T15:23:51;19.80;;;11.48;;
74553;SDS011;63114;59.956;30.214;2022-10-16T15:26:17;19.58;;;10.55;;
74553;SDS011;63114;59.956;30.214;2022-10-16T15:28:43;19.55;;;11.50;;
74553;SDS011;63114;59.956;30.214;2022-10-16T15:31:09;21.85;;;12.30;;
74553;SDS011;63114;59.956;30.214;2022-10-16T15:33:35;16.85;;;11.05;;
74553;SDS011;63114;59.956;30.214;2022-10-16T15:36:01;20.90;;;11.38;;
74553;SDS011;63114;59.956;30.214;2022-10-16T15:38:28;21.15;;;11.70;;
74553;SDS011;63114;59.956;30.214;2022-10-16T15:40:55;21.48;;;12.43;;
74553;SDS011;63114;59.956;30.214;2022-10-16T15:43:21;19.25;;;11.77;;
74553;SDS011;63114;59.956;30.214;2022-10-16T15:45:55;19.80;;;11.70;;
74553;SDS011;63114;59.956;30.214;2022-10-16T15:48:28;21.02;;;11.85;;
74553;SDS011;63114;59.956;30.214;2022-10-16T15:50:54;23.77;;;13.07;;
74553;SDS011;63114;59.956;30.214;2022-10-16T15:53:20;21.73;;;14.02;;
74553;SDS011;63114;59.956;30.214;2022-10-16T15:55:47;22.95;;;13.07;;
74553;SDS011;63114;59.956;30.214;2022-10-16T15:58:16;22.80;;;14.40;;
74553;SDS011;63114;59.956;30.214;2022-10-16T16:00:44;20.20;;;13.13;;
74553;SDS011;63114;59.956;30.214;2022-10-16T16:03:09;24.48;;;13.70;;
74553;SDS011;63114;59.956;30.214;2022-10-16T16:05:37;25.00;;;12.98;;
74553;SDS011;63114;59.956;30.214;2022-10-16T16:08:04;27.23;;;14.00;;
74553;SDS011;63114;59.956;30.214;2022-10-16T16:10:32;25.67;;;13.98;;
74553;SDS011;63114;59.956;30.214;2022-10-16T16:12:58;25.15;;;14.18;;
74553;SDS011;63114;59.956;30.214;2022-10-16T16:15:25;23.48;;;13.75;;
74553;SDS011;63114;59.956;30.214;2022-10-16T16:17:51;25.50;;;14.75;;
74553;SDS011;63114;59.956;30.214;2022-10-16T16:20:16;25.77;;;14.75;;
74553;SDS011;63114;59.956;30.214;2022-10-16T16:22:42;27.52;;;15.95;;
74553;SDS011;63114;59.956;30.214;2022-10-16T16:25:08;25.55;;;14.57;;
74553;SDS011;63114;59.956;30.214;2022-10-16T16:27:34;25.30;;;14.43;;
74553;SDS011;63114;59.956;30.214;2022-10-16T16:30:04;26.02;;;15.80;;
74553;SDS011;63114;59.956;30.214;2022-10-16T16:32:35;28.33;;;14.30;;
74553;SDS011;63114;59.956;30.214;2022-10-16T16:35:01;28.02;;;14.57;;
74553;SDS011;63114;59.956;30.214;2022-10-16T16:37:27;35.55;;;16.60;;
74553;SDS011;63114;59.956;30.214;2022-10-16T16:39:57;29.77;;;16.02;;
74553;SDS011;63114;59.956;30.214;2022-10-16T16:42:27;26.83;;;14.68;;
74553;SDS011;63114;59.956;30.214;2022-10-16T16:44:53;31.27;;;15.70;;
74553;SDS011;63114;59.956;30.214;2022-10-16T16:47:21;29.35;;;15.13;;
74553;SDS011;63114;59.956;30.214;2022-10-16T16:49:46;29.65;;;15.65;;
74553;SDS011;63114;59.956;30.214;2022-10-16T16:52:13;28.30;;;15.15;;
74553;SDS011;63114;59.956;30.214;2022-10-16T16:54:39;24.40;;;14.10;;
74553;SDS011;63114;59.956;30.214;2022-10-16T16:57:05;30.02;;;15.20;;
74553;SDS011;63114;59.956;30.214;2022-10-16T16:59:30;30.83;;;16.23;;